Time;durP1;ratioP1;P1;durP2;ratioP2;P2;SDS_P1;SDS_P2;PMS_P1;PMS_P2;Temp;Humidity;BMP_temperature;BMP_pressure;BME280_temperature;BME280_humidity;BME280_pressure;Samples;Min_cycle;Max_cycle;Signal;HPM_P1;HPM_P2
2024/02/17 05:30:23;;;;;;;0.10;0.10;;;8.40;82.20;;;;;;6151677;23;20122;-81
2024/02/17 05:32:48;;;;;;;0.10;0.10;;;8.40;82.20;;;;;;6154941;23;20044;-81
2024/02/17 05:35:14;;;;;;;0.10;0.10;;;8.40;82.20;;;;;;6133681;23;20005;-82
2024/02/17 05:37:40;;;;;;;0.10;0.10;;;8.40;82.10;;;;;;6159522;23;20005;-81
2024/02/17 05:40:07;;;;;;;0.10;0.10;;;8.50;81.90;;;;;;6133439;23;20002;-82
2024/02/17 05:42:34;;;;;;;0.10;0.10;;;8.50;81.80;;;;;;6159272;23;20005;-82
2024/02/17 05:45:03;;;;;;;0.10;0.10;;;8.40;82.30;;;;;;6159957;23;20001;-81
2024/02/17 05:47:29;;;;;;;0.10;0.10;;;8.40;82.50;;;;;;6159163;23;20065;-82
2024/02/17 05:49:55;;;;;;;0.10;0.10;;;8.40;82.40;;;;;;6159608;23;20354;-81
2024/02/17 05:52:21;;;;;;;0.10;0.10;;;8.50;82.40;;;;;;6159539;23;20420;-81
2024/02/17 05:54:46;;;;;;;0.10;0.10;;;8.50;82.20;;;;;;6159370;23;20008;-82
2024/02/17 05:57:12;;;;;;;0.10;0.10;;;8.50;82.20;;;;;;6159493;23;20029;-81
2024/02/17 05:59:38;;;;;;;0.10;0.10;;;8.50;82.20;;;;;;6159615;23;20009;-81
2024/02/17 06:02:04;;;;;;;0.17;0.10;;;8.60;82.40;;;;;;6158350;23;20005;-82
2024/02/17 06:04:30;;;;;;;0.10;0.10;;;8.60;82.40;;;;;;6159431;23;20029;-81
2024/02/17 06:06:55;;;;;;;0.10;0.10;;;8.50;82.70;;;;;;6133609;23;20516;-82
2024/02/17 06:09:21;;;;;;;0.10;0.10;;;8.40;82.80;;;;;;6159349;23;20016;-81
2024/02/17 06:11:50;;;;;;;0.10;0.10;;;8.40;82.80;;;;;;6159366;23;20009;-81
2024/02/17 06:14:15;;;;;;;0.10;0.10;;;8.40;82.80;;;;;;6158872;23;20069;-81
2024/02/17 06:16:41;;;;;;;0.10;0.10;;;8.40;82.90;;;;;;6159697;23;20378;-81
2024/02/17 06:21:54;;;;;;;0.10;0.10;;;8.40;82.90;;;;;;6158831;23;20059;-81
2024/02/17 06:24:20;;;;;;;0.10;0.10;;;8.40;82.80;;;;;;6133642;23;20006;-81
2024/02/17 06:26:45;;;;;;;0.10;0.10;;;8.30;83.10;;;;;;6159349;23;20490;-81
2024/02/17 06:29:11;;;;;;;0.10;0.10;;;8.30;83.40;;;;;;6159350;23;20029;-81
2024/02/17 06:31:37;;;;;;;0.10;0.10;;;8.40;83.40;;;;;;6159129;23;20141;-81
2024/02/17 06:34:03;;;;;;;0.10;0.10;;;8.40;83.50;;;;;;6159108;23;20001;-81
2024/02/17 06:36:28;;;;;;;0.10;0.10;;;8.40;83.70;;;;;;6159377;23;20052;-81
2024/02/17 06:38:54;;;;;;;0.10;0.10;;;8.40;84.10;;;;;;6159465;23;20002;-81
2024/02/17 06:41:20;;;;;;;0.10;0.10;;;8.40;84.40;;;;;;6159062;23;20052;-81
2024/02/17 06:43:48;;;;;;;0.10;0.10;;;8.50;84.60;;;;;;6133108;23;20318;-81
2024/02/17 06:46:15;;;;;;;0.10;0.10;;;8.50;84.50;;;;;;6159152;23;20005;-81
2024/02/17 06:48:41;;;;;;;0.15;0.15;;;8.60;84.70;;;;;;6132991;23;20005;-81
2024/02/17 06:51:09;;;;;;;0.10;0.10;;;8.50;85.20;;;;;;6159401;23;19998;-81
2024/02/17 06:53:35;;;;;;;0.10;0.10;;;8.50;85.20;;;;;;6159271;23;20009;-81
2024/02/17 06:56:01;;;;;;;0.10;0.10;;;8.50;85.10;;;;;;6132597;23;20005;-81
2024/02/17 06:58:26;;;;;;;0.20;0.10;;;8.60;85.30;;;;;;6159030;23;20004;-80
2024/02/17 07:00:52;;;;;;;0.10;0.10;;;8.60;85.30;;;;;;6159335;23;20077;-83
2024/02/17 07:03:18;;;;;;;0.10;0.10;;;8.70;85.40;;;;;;6158443;23;20025;-84
2024/02/17 07:05:44;;;;;;;0.10;0.10;;;8.70;85.50;;;;;;6159706;23;20001;-86
2024/02/17 07:08:11;;;;;;;0.10;0.10;;;8.70;85.80;;;;;;6133015;23;20009;-80
2024/02/17 07:10:39;;;;;;;0.10;0.10;;;8.70;85.70;;;;;;6158625;23;20027;-86
2024/02/17 07:13:17;;;;;;;0.10;0.10;;;8.70;85.70;;;;;;6158941;23;20342;-84
2024/02/17 07:15:46;;;;;;;0.10;0.10;;;8.70;85.70;;;;;;6132966;23;20064;-86
2024/02/17 07:18:18;;;;;;;0.10;0.10;;;8.60;86.30;;;;;;6158492;23;20086;-83
2024/02/17 07:20:49;;;;;;;0.10;0.10;;;8.60;86.60;;;;;;6159010;23;20008;-84
2024/02/17 07:23:17;;;;;;;0.10;0.10;;;8.70;86.60;;;;;;6159250;23;20002;-88
2024/02/17 07:25:51;;;;;;;0.10;0.10;;;8.80;86.60;;;;;;6159165;23;20080;-83
2024/02/17 07:28:16;;;;;;;0.10;0.10;;;8.80;86.30;;;;;;6158843;23;20021;-82
2024/02/17 07:30:42;;;;;;;0.10;0.10;;;8.80;86.60;;;;;;6159271;23;20021;-83
2024/02/17 07:33:09;;;;;;;0.10;0.10;;;8.90;86.50;;;;;;6132962;23;20014;-82
2024/02/17 07:36:00;;;;;;;;;;;;;;;;;;;;;
2024/02/17 07:38:26;;;;;;;0.10;0.10;;;8.90;86.80;;;;;;6158469;23;20086;-82
2024/02/17 07:40:52;;;;;;;0.10;0.10;;;8.90;87.10;;;;;;6132369;23;20002;-82
2024/02/17 07:43:19;;;;;;;0.10;0.10;;;8.90;87.70;;;;;;6159111;23;20015;-81
2024/02/17 07:45:48;;;;;;;0.10;0.10;;;8.90;87.70;;;;;;6132452;23;20018;-83
2024/02/17 07:48:14;;;;;;;0.10;0.10;;;8.80;88.00;;;;;;6132331;23;20060;-79
2024/02/17 07:50:40;;;;;;;0.10;0.10;;;8.80;88.40;;;;;;6159161;23;20092;-88
2024/02/17 07:53:06;;;;;;;0.10;0.10;;;8.70;88.30;;;;;;6158474;23;20002;-82
2024/02/17 07:55:32;;;;;;;0.10;0.10;;;8.80;88.50;;;;;;6132025;23;20009;-80
2024/02/17 07:57:57;;;;;;;0.10;0.10;;;8.90;88.50;;;;;;6158814;23;20021;-79
2024/02/17 08:00:23;;;;;;;0.10;0.10;;;9.00;88.50;;;;;;6132810;23;20005;-80
2024/02/17 08:02:51;;;;;;;0.10;0.10;;;9.00;88.10;;;;;;6132059;23;20001;-82
2024/02/17 08:05:17;;;;;;;0.10;0.10;;;9.00;88.40;;;;;;6158734;23;20445;-82
2024/02/17 08:07:43;;;;;;;0.10;0.10;;;9.10;88.20;;;;;;6132483;23;20016;-82
2024/02/17 08:10:11;;;;;;;0.10;0.10;;;9.10;88.10;;;;;;6159890;23;20076;-82
2024/02/17 08:12:37;;;;;;;0.10;0.10;;;9.10;88.40;;;;;;6133711;23;20057;-83
2024/02/17 08:15:06;;;;;;;0.10;0.10;;;9.20;88.30;;;;;;6134091;23;20080;-81
2024/02/17 08:17:33;;;;;;;0.10;0.10;;;9.20;88.20;;;;;;6160683;23;20025;-82
2024/02/17 08:19:58;;;;;;;0.10;0.10;;;9.20;88.30;;;;;;6161122;23;20303;-90
2024/02/17 08:22:24;;;;;;;0.10;0.10;;;9.20;88.30;;;;;;6161187;23;20060;-85
2024/02/17 08:24:53;;;;;;;0.10;0.10;;;9.30;88.30;;;;;;6160539;23;20033;-84
2024/02/17 08:27:19;;;;;;;0.10;0.10;;;9.30;88.20;;;;;;6160726;23;20434;-80
2024/02/17 08:29:45;;;;;;;0.10;0.10;;;9.40;88.30;;;;;;6134201;23;20338;-80
2024/02/17 08:32:11;;;;;;;0.10;0.10;;;9.40;88.30;;;;;;6157541;23;20028;-80
2024/02/17 08:34:37;;;;;;;0.10;0.10;;;9.50;88.20;;;;;;6158728;23;20059;-80
2024/02/17 08:37:03;;;;;;;0.10;0.10;;;9.70;88.40;;;;;;6133992;23;20089;-80
2024/02/17 08:39:28;;;;;;;0.10;0.10;;;9.80;88.00;;;;;;6133957;23;20430;-80
2024/02/17 08:41:55;;;;;;;0.10;0.10;;;9.90;87.80;;;;;;6159886;23;20001;-80
2024/02/17 08:44:21;;;;;;;0.10;0.10;;;10.00;87.70;;;;;;6159996;23;20001;-81
2024/02/17 08:46:47;;;;;;;0.10;0.10;;;10.00;87.60;;;;;;6128960;23;20620;-82
2024/02/17 08:49:12;;;;;;;0.10;0.10;;;10.00;87.90;;;;;;6133249;23;20009;-83
2024/02/17 08:51:38;;;;;;;0.10;0.10;;;10.00;87.80;;;;;;6157508;23;20719;-84
2024/02/17 08:54:04;;;;;;;0.10;0.10;;;10.10;87.60;;;;;;6159747;23;20337;-83
2024/02/17 08:56:29;;;;;;;0.10;0.10;;;10.20;87.80;;;;;;6134236;23;20046;-83
2024/02/17 08:58:55;;;;;;;0.10;0.10;;;10.10;87.60;;;;;;6131673;23;20024;-84
2024/02/17 09:01:21;;;;;;;0.10;0.10;;;10.10;88.00;;;;;;6134599;23;20060;-82
2024/02/17 09:03:46;;;;;;;0.10;0.10;;;10.20;88.00;;;;;;6134735;23;20040;-83
2024/02/17 09:06:12;;;;;;;0.10;0.10;;;10.20;88.20;;;;;;6159126;23;20430;-84
2024/02/17 09:08:39;;;;;;;0.10;0.10;;;10.20;87.80;;;;;;6132442;23;20010;-83
2024/02/17 09:11:05;;;;;;;0.10;0.10;;;10.30;88.10;;;;;;6159031;23;20088;-83
2024/02/17 09:13:30;;;;;;;0.10;0.10;;;10.30;88.10;;;;;;6133292;23;20001;-83
2024/02/17 09:15:56;;;;;;;0.10;0.10;;;10.40;88.30;;;;;;6158653;23;20158;-82
2024/02/17 09:18:23;;;;;;;0.10;0.10;;;10.40;88.40;;;;;;6159942;23;20338;-82
2024/02/17 09:20:50;;;;;;;0.10;0.10;;;10.40;88.20;;;;;;6158681;23;20319;-81
2024/02/17 09:23:15;;;;;;;0.10;0.10;;;10.40;88.40;;;;;;6159849;23;20001;-87
2024/02/17 09:25:41;;;;;;;0.10;0.10;;;10.50;88.40;;;;;;6159830;23;20816;-81
2024/02/17 09:28:07;;;;;;;0.10;0.10;;;10.50;88.60;;;;;;6160199;23;20326;-82
2024/02/17 09:30:34;;;;;;;0.10;0.10;;;10.60;88.40;;;;;;6158702;23;20009;-83
2024/02/17 09:33:01;;;;;;;0.10;0.10;;;10.60;88.20;;;;;;6134152;23;20088;-87
2024/02/17 09:35:27;;;;;;;0.10;0.10;;;10.60;88.40;;;;;;6133254;23;20453;-81
2024/02/17 09:37:53;;;;;;;0.10;0.10;;;10.50;88.50;;;;;;6159306;23;20024;-83
2024/02/17 09:40:20;;;;;;;0.10;0.10;;;10.60;88.60;;;;;;6133206;23;20001;-88
2024/02/17 09:42:47;;;;;;;0.10;0.10;;;10.70;88.60;;;;;;6133671;23;20006;-88
2024/02/17 09:45:13;;;;;;;0.10;0.10;;;10.70;88.80;;;;;;6133507;23;20575;-87
2024/02/17 09:47:43;;;;;;;0.10;0.10;;;10.80;88.60;;;;;;6133393;23;20093;-88
2024/02/17 09:50:11;;;;;;;0.10;0.10;;;10.80;88.30;;;;;;6158722;23;20449;-89
2024/02/17 09:52:38;;;;;;;0.10;0.10;;;10.90;88.30;;;;;;6160169;23;20001;-88
2024/02/17 09:55:04;;;;;;;0.10;0.10;;;10.90;88.60;;;;;;6159035;23;20097;-87
2024/02/17 09:57:30;;;;;;;0.10;0.10;;;10.80;88.50;;;;;;6132827;23;20005;-88
2024/02/17 09:59:56;;;;;;;0.10;0.10;;;10.90;88.50;;;;;;6131947;23;20341;-88
2024/02/17 10:02:22;;;;;;;0.10;0.10;;;10.90;88.70;;;;;;6158328;23;20005;-87
2024/02/17 10:04:57;;;;;;;0.10;0.10;;;10.90;88.60;;;;;;6158771;23;20010;-89
2024/02/17 10:07:23;;;;;;;0.10;0.10;;;11.00;88.80;;;;;;6133358;23;20016;-89
2024/02/17 10:09:49;;;;;;;0.10;0.10;;;10.90;88.60;;;;;;6120475;23;20013;-89
2024/02/17 10:12:17;;;;;;;0.10;0.10;;;10.90;88.80;;;;;;6158904;23;20065;-89
2024/02/17 10:14:43;;;;;;;0.10;0.10;;;10.90;88.90;;;;;;6132406;23;20010;-89
2024/02/17 10:17:11;;;;;;;0.10;0.10;;;10.90;88.90;;;;;;6132885;23;20470;-89
2024/02/17 10:19:40;;;;;;;0.10;0.10;;;10.90;89.20;;;;;;6131846;23;20048;-88
2024/02/17 10:22:05;;;;;;;0.10;0.10;;;11.00;89.00;;;;;;6132937;23;20005;-85
2024/02/17 10:24:31;;;;;;;0.10;0.10;;;11.10;89.00;;;;;;6159367;23;20641;-87
2024/02/17 10:26:56;;;;;;;0.10;0.10;;;11.20;88.70;;;;;;6158368;23;20031;-86
2024/02/17 10:29:25;;;;;;;0.10;0.10;;;11.20;88.80;;;;;;6131541;23;20006;-83
2024/02/17 10:31:51;;;;;;;0.10;0.10;;;11.30;88.40;;;;;;6158181;23;20017;-84
2024/02/17 10:34:17;;;;;;;0.10;0.10;;;11.30;88.50;;;;;;6158291;23;20002;-90
2024/02/17 10:36:43;;;;;;;0.10;0.10;;;11.30;88.50;;;;;;6132749;23;20064;-85
2024/02/17 10:39:12;;;;;;;0.10;0.10;;;11.40;88.20;;;;;;6158994;23;20005;-86
2024/02/17 10:41:38;;;;;;;0.10;0.10;;;11.50;88.00;;;;;;6158401;23;20358;-85
2024/02/17 10:44:05;;;;;;;0.10;0.10;;;11.60;88.30;;;;;;6132220;23;20012;-84
2024/02/17 10:46:34;;;;;;;0.10;0.10;;;11.70;88.30;;;;;;6132249;23;20005;-85
2024/02/17 10:49:18;;;;;;;0.10;0.10;;;11.80;88.00;;;;;;6158659;23;20001;-84
2024/02/17 10:52:05;;;;;;;0.10;0.10;;;11.80;87.60;;;;;;6132844;23;20008;-84
2024/02/17 10:54:48;;;;;;;0.10;0.10;;;11.80;87.70;;;;;;6132213;23;20036;-84
2024/02/17 10:57:16;;;;;;;0.10;0.10;;;11.80;87.80;;;;;;6132939;23;20036;-84
2024/02/17 10:59:46;;;;;;;0.10;0.10;;;11.80;87.70;;;;;;6131787;23;20010;-85
2024/02/17 11:02:18;;;;;;;0.10;0.10;;;11.90;87.70;;;;;;6132556;23;20073;-84
2024/02/17 11:04:44;;;;;;;0.10;0.10;;;11.90;87.60;;;;;;6132656;23;20006;-85
2024/02/17 11:07:11;;;;;;;0.10;0.10;;;11.90;87.80;;;;;;6158201;23;20009;-83
2024/02/17 11:09:37;;;;;;;0.10;0.10;;;11.90;87.80;;;;;;6158668;23;20084;-84
2024/02/17 11:12:26;;;;;;;0.10;0.10;;;12.00;87.60;;;;;;6157907;23;20001;-84
2024/02/17 11:15:08;;;;;;;0.10;0.10;;;12.20;87.60;;;;;;6139628;23;20021;-84
2024/02/17 11:17:40;;;;;;;0.10;0.10;;;12.20;87.20;;;;;;6123788;23;20010;-84
2024/02/17 11:20:14;;;;;;;0.10;0.10;;;12.20;87.20;;;;;;6156141;23;20460;-80
2024/02/17 11:22:41;;;;;;;0.10;0.10;;;12.30;87.20;;;;;;6129709;23;20009;-86
2024/02/17 11:25:09;;;;;;;0.10;0.10;;;12.50;86.70;;;;;;6147479;23;20101;-86
2024/02/17 11:27:42;;;;;;;0.10;0.10;;;12.70;86.50;;;;;;6129790;23;20151;-81
2024/02/17 11:30:08;;;;;;;0.10;0.10;;;12.80;86.50;;;;;;6133012;23;20386;-84
2024/02/17 11:32:38;;;;;;;0.10;0.10;;;12.90;85.90;;;;;;6158238;23;20018;-80
2024/02/17 11:35:07;;;;;;;0.10;0.10;;;13.20;85.80;;;;;;6132306;23;20454;-81
2024/02/17 11:37:33;;;;;;;0.10;0.10;;;13.20;85.50;;;;;;6158976;23;19998;-83
2024/02/17 11:40:00;;;;;;;0.10;0.10;;;13.30;84.90;;;;;;6158791;23;20004;-83
2024/02/17 11:42:26;;;;;;;0.10;0.10;;;13.30;84.80;;;;;;6156119;23;20434;-80
2024/02/17 11:44:54;;;;;;;0.10;0.10;;;13.30;84.20;;;;;;6159739;23;20008;-80
2024/02/17 11:47:20;;;;;;;0.10;0.10;;;13.30;84.30;;;;;;6133981;23;20009;-83
2024/02/17 11:49:46;;;;;;;0.10;0.10;;;13.30;84.40;;;;;;6134097;23;20088;-88
2024/02/17 11:52:12;;;;;;;0.10;0.10;;;13.40;84.30;;;;;;6134760;23;20006;-82
2024/02/17 11:54:38;;;;;;;0.10;0.10;;;13.60;83.70;;;;;;6159930;23;20423;-80
2024/02/17 11:57:05;;;;;;;0.10;0.10;;;13.70;83.60;;;;;;6160879;23;20425;-81
2024/02/17 11:59:31;;;;;;;0.10;0.10;;;13.80;83.50;;;;;;6134020;23;20024;-83
2024/02/17 12:02:01;;;;;;;0.10;0.10;;;13.80;82.60;;;;;;6160590;23;19998;-80
2024/02/17 12:04:26;;;;;;;0.10;0.10;;;13.90;82.50;;;;;;6160013;23;20029;-79
2024/02/17 12:06:52;;;;;;;0.10;0.10;;;13.90;82.70;;;;;;6159907;23;20572;-81
2024/02/17 12:09:18;;;;;;;0.10;0.10;;;13.90;82.40;;;;;;6161209;23;20001;-86
2024/02/17 12:11:45;;;;;;;0.10;0.10;;;13.80;81.90;;;;;;6160743;23;20060;-84
2024/02/17 12:14:11;;;;;;;0.10;0.10;;;14.00;81.50;;;;;;6160772;23;20001;-87
2024/02/17 12:16:37;;;;;;;0.10;0.10;;;14.20;81.00;;;;;;6160688;23;19997;-85
2024/02/17 12:19:10;;;;;;;0.10;0.10;;;14.30;80.50;;;;;;6134631;23;20008;-84
2024/02/17 12:21:38;;;;;;;0.10;0.10;;;14.40;80.00;;;;;;6134900;23;20059;-87
2024/02/17 12:24:06;;;;;;;0.10;0.10;;;14.50;80.10;;;;;;6135025;23;20009;-82
2024/02/17 12:26:33;;;;;;;0.10;0.10;;;14.40;79.70;;;;;;6134372;23;20010;-83
2024/02/17 12:29:03;;;;;;;0.10;0.10;;;14.50;79.80;;;;;;6160727;23;20001;-85
2024/02/17 12:31:30;;;;;;;0.10;0.10;;;14.50;79.60;;;;;;6160380;23;20068;-78
2024/02/17 12:33:56;;;;;;;0.10;0.10;;;14.50;79.10;;;;;;6160674;23;20017;-78
2024/02/17 12:36:22;;;;;;;0.10;0.10;;;14.60;79.40;;;;;;6160639;23;19998;-78
2024/02/17 12:38:59;;;;;;;0.10;0.10;;;14.70;79.30;;;;;;6160686;23;20005;-78
2024/02/17 12:41:25;;;;;;;0.10;0.10;;;14.60;77.50;;;;;;6134641;23;20168;-79
2024/02/17 12:43:51;;;;;;;0.10;0.10;;;14.60;78.10;;;;;;6160519;23;20021;-78
2024/02/17 12:46:28;;;;;;;0.00;0.00;;;14.50;77.70;;;;;;6160126;23;20006;-78
2024/02/17 12:48:57;;;;;;;0.10;0.10;;;14.40;77.60;;;;;;6134304;23;20005;-79
2024/02/17 12:51:23;;;;;;;0.00;0.00;;;14.30;78.50;;;;;;6134289;23;20002;-80
2024/02/17 12:53:50;;;;;;;0.10;0.10;;;14.30;79.00;;;;;;6134457;23;20002;-78
2024/02/17 12:56:19;;;;;;;0.10;0.10;;;14.40;78.90;;;;;;6132797;23;20009;-81
2024/02/17 12:58:44;;;;;;;0.10;0.10;;;14.40;78.80;;;;;;6157423;23;20505;-79
2024/02/17 13:01:10;;;;;;;0.10;0.10;;;14.30;78.40;;;;;;6131347;23;20028;-78
2024/02/17 13:03:39;;;;;;;0.10;0.10;;;14.30;78.60;;;;;;6130712;23;20002;-78
2024/02/17 13:06:06;;;;;;;0.10;0.10;;;14.30;78.60;;;;;;6158821;23;20069;-78
2024/02/17 13:08:32;;;;;;;0.10;0.10;;;14.30;78.80;;;;;;6158195;23;20032;-78
2024/02/17 13:10:59;;;;;;;0.10;0.10;;;14.30;79.00;;;;;;6158267;23;20413;-79
2024/02/17 13:13:25;;;;;;;0.10;0.10;;;14.30;79.10;;;;;;6157363;23;20389;-78
2024/02/17 13:15:51;;;;;;;0.10;0.10;;;14.30;79.00;;;;;;6158327;23;20072;-78
2024/02/17 13:18:17;;;;;;;0.10;0.10;;;14.30;79.00;;;;;;6131764;23;20445;-79
2024/02/17 13:20:44;;;;;;;0.10;0.10;;;14.40;79.00;;;;;;6159040;23;20076;-79
2024/02/17 13:23:10;;;;;;;0.10;0.10;;;14.40;78.80;;;;;;6157929;23;20006;-78
2024/02/17 13:25:35;;;;;;;0.10;0.10;;;14.40;78.60;;;;;;6158106;23;20021;-78
2024/02/17 13:28:01;;;;;;;0.10;0.10;;;14.40;78.40;;;;;;6158797;23;20002;-79
2024/02/17 13:30:28;;;;;;;0.10;0.10;;;14.40;78.40;;;;;;6158051;23;20002;-78
2024/02/17 13:32:53;;;;;;;0.10;0.10;;;14.50;78.20;;;;;;6132165;23;20013;-78
2024/02/17 13:35:19;;;;;;;0.10;0.10;;;14.50;77.80;;;;;;6159209;23;20001;-78
2024/02/17 13:37:47;;;;;;;0.10;0.10;;;14.40;78.20;;;;;;6158632;23;20026;-79
2024/02/17 13:40:14;;;;;;;0.10;0.10;;;14.30;78.00;;;;;;6132652;23;20010;-78
2024/02/17 13:42:40;;;;;;;0.10;0.10;;;14.40;78.20;;;;;;6158553;23;20009;-78
2024/02/17 13:45:13;;;;;;;0.10;0.10;;;14.40;77.90;;;;;;6132467;23;20017;-78
2024/02/17 13:47:40;;;;;;;0.10;0.10;;;14.40;77.80;;;;;;6131119;23;20085;-77
2024/02/17 13:50:11;;;;;;;0.10;0.10;;;14.40;78.00;;;;;;6158743;23;20037;-79
2024/02/17 13:52:37;;;;;;;0.10;0.10;;;14.40;77.60;;;;;;6157287;23;20009;-78
2024/02/17 13:55:03;;;;;;;0.10;0.10;;;14.50;77.70;;;;;;6158727;23;20029;-78
2024/02/17 13:57:29;;;;;;;0.10;0.10;;;14.40;77.80;;;;;;6132047;23;20008;-78
2024/02/17 13:59:58;;;;;;;0.10;0.10;;;14.50;78.00;;;;;;6159418;23;20055;-79
2024/02/17 14:02:29;;;;;;;0.10;0.10;;;14.50;77.90;;;;;;6132919;23;20010;-80
2024/02/17 14:05:05;;;;;;;0.10;0.10;;;14.60;78.10;;;;;;6148408;23;20107;-79
2024/02/17 14:07:31;;;;;;;0.00;0.00;;;14.40;77.60;;;;;;6129565;23;20029;-79
2024/02/17 14:09:56;;;;;;;0.10;0.10;;;14.30;78.00;;;;;;6120653;23;20404;-78
2024/02/17 14:12:23;;;;;;;0.10;0.10;;;14.30;78.30;;;;;;6158056;23;20008;-79
2024/02/17 14:14:52;;;;;;;0.10;0.10;;;14.50;78.30;;;;;;6157506;23;20055;-79
2024/02/17 14:17:18;;;;;;;0.10;0.10;;;14.60;77.80;;;;;;6131527;23;20437;-79
2024/02/17 14:19:43;;;;;;;0.10;0.10;;;14.60;77.60;;;;;;6157568;23;20076;-79
2024/02/17 14:22:13;;;;;;;0.10;0.10;;;14.60;77.50;;;;;;6132790;23;20327;-79
2024/02/17 14:24:39;;;;;;;0.00;0.00;;;14.70;77.30;;;;;;6132560;23;20033;-79
2024/02/17 14:27:05;;;;;;;0.10;0.10;;;14.60;77.40;;;;;;6158215;23;20005;-79
2024/02/17 14:29:35;;;;;;;0.10;0.10;;;14.60;77.50;;;;;;6126296;23;20090;-79
2024/02/17 14:32:45;;;;;;;0.10;0.10;;;14.60;77.60;;;;;;6149939;23;20107;-80
2024/02/17 14:35:10;;;;;;;0.10;0.10;;;14.40;77.30;;;;;;6154864;23;20018;-80
2024/02/17 14:37:36;;;;;;;0.10;0.10;;;14.40;77.90;;;;;;6152867;23;20011;-79
2024/02/17 14:40:02;;;;;;;0.10;0.10;;;14.50;78.10;;;;;;6156666;23;20009;-79
2024/02/17 14:42:27;;;;;;;0.10;0.10;;;14.40;78.00;;;;;;6157701;23;20339;-79
2024/02/17 14:44:53;;;;;;;0.10;0.10;;;14.40;77.70;;;;;;6156815;23;20013;-79
2024/02/17 14:47:18;;;;;;;0.10;0.10;;;14.50;78.00;;;;;;6156607;23;20009;-79
2024/02/17 14:49:44;;;;;;;0.10;0.10;;;14.50;77.90;;;;;;6156200;23;20096;-79
2024/02/17 14:52:10;;;;;;;0.00;0.00;;;14.50;77.80;;;;;;6158677;23;20005;-79
2024/02/17 14:54:36;;;;;;;0.00;0.00;;;14.40;77.40;;;;;;6158049;23;20009;-79
2024/02/17 14:57:02;;;;;;;0.10;0.10;;;14.40;77.10;;;;;;6156852;23;20009;-79
2024/02/17 14:59:28;;;;;;;0.10;0.10;;;14.30;77.10;;;;;;6156093;23;20006;-78
2024/02/17 15:01:53;;;;;;;0.10;0.10;;;14.30;76.90;;;;;;6158909;23;20461;-79
2024/02/17 15:04:19;;;;;;;0.10;0.10;;;14.30;77.00;;;;;;6158006;23;20001;-79
2024/02/17 15:06:45;;;;;;;0.10;0.10;;;14.30;76.90;;;;;;6156734;23;20442;-79
2024/02/17 15:09:10;;;;;;;0.10;0.10;;;14.30;77.00;;;;;;6157832;23;20341;-79
2024/02/17 15:11:36;;;;;;;0.10;0.10;;;14.20;76.80;;;;;;6156971;23;20009;-79
2024/02/17 15:14:03;;;;;;;0.00;0.00;;;14.20;77.30;;;;;;6156732;23;20016;-80
2024/02/17 15:16:28;;;;;;;0.10;0.10;;;14.30;77.00;;;;;;6156887;23;20006;-80
2024/02/17 15:18:54;;;;;;;0.10;0.10;;;14.20;77.00;;;;;;6157080;23;20001;-80
2024/02/17 15:21:20;;;;;;;0.00;0.00;;;14.20;77.10;;;;;;6158347;23;20080;-80
2024/02/17 15:23:45;;;;;;;0.10;0.10;;;14.20;77.00;;;;;;6156802;23;20093;-80
2024/02/17 15:26:14;;;;;;;0.10;0.10;;;14.20;77.20;;;;;;6156838;23;20023;-80
2024/02/17 15:28:40;;;;;;;0.10;0.10;;;14.20;77.10;;;;;;6156381;23;20001;-80
2024/02/17 15:31:06;;;;;;;0.10;0.10;;;14.30;77.10;;;;;;6158323;23;20064;-80
2024/02/17 15:33:31;;;;;;;0.10;0.10;;;14.30;76.90;;;;;;6132077;23;20012;-80
2024/02/17 15:35:57;;;;;;;0.10;0.10;;;14.20;77.20;;;;;;6131816;23;20044;-80
2024/02/17 15:38:24;;;;;;;0.00;0.00;;;14.30;77.20;;;;;;6157441;23;20191;-80
2024/02/17 15:40:52;;;;;;;0.10;0.10;;;14.30;77.00;;;;;;6131778;23;20041;-80
2024/02/17 15:43:20;;;;;;;0.00;0.00;;;14.30;76.70;;;;;;6158289;23;20002;-79
2024/02/17 15:45:46;;;;;;;0.10;0.10;;;14.30;76.80;;;;;;6131643;23;20076;-83
2024/02/17 15:48:12;;;;;;;0.10;0.10;;;14.30;76.70;;;;;;6131685;23;20012;-79
2024/02/17 15:50:37;;;;;;;0.10;0.10;;;14.30;76.70;;;;;;6156045;23;20001;-80
2024/02/17 15:53:08;;;;;;;0.10;0.10;;;14.30;76.60;;;;;;6155226;23;20005;-87
2024/02/17 15:55:34;;;;;;;0.10;0.10;;;14.30;76.80;;;;;;6131534;23;20013;-81
2024/02/17 15:58:02;;;;;;;0.10;0.10;;;14.30;76.60;;;;;;6157411;23;19998;-82
2024/02/17 16:00:29;;;;;;;0.10;0.10;;;14.30;76.70;;;;;;6157972;23;20004;-80
2024/02/17 16:02:55;;;;;;;0.03;0.03;;;14.40;76.80;;;;;;6158265;23;20464;-81
2024/02/17 16:05:21;;;;;;;0.10;0.10;;;14.30;77.00;;;;;;6156685;23;20032;-80
2024/02/17 16:07:47;;;;;;;0.10;0.10;;;14.30;77.00;;;;;;6157765;23;20013;-80
2024/02/17 16:10:13;;;;;;;0.10;0.10;;;14.30;77.20;;;;;;6158161;23;20006;-81
2024/02/17 16:12:43;;;;;;;0.10;0.10;;;14.20;77.20;;;;;;6131650;23;20044;-84
2024/02/17 16:15:11;;;;;;;0.03;0.03;;;14.20;77.50;;;;;;6155573;23;20511;-78
2024/02/17 16:17:37;;;;;;;0.00;0.00;;;14.20;77.60;;;;;;6129200;23;20009;-79
2024/02/17 16:20:04;;;;;;;0.10;0.10;;;14.20;77.70;;;;;;6129718;23;20001;-80
2024/02/17 16:22:30;;;;;;;0.10;0.10;;;14.20;77.90;;;;;;6130014;23;20026;-79
2024/02/17 16:24:56;;;;;;;0.10;0.10;;;14.20;77.90;;;;;;6131113;23;20009;-80
2024/02/17 16:27:23;;;;;;;0.00;0.00;;;14.10;77.90;;;;;;6131541;23;20014;-80
2024/02/17 16:29:49;;;;;;;0.10;0.10;;;14.10;78.00;;;;;;6131569;23;20012;-79
2024/02/17 16:32:15;;;;;;;0.10;0.10;;;14.00;78.00;;;;;;6159303;23;20028;-79
2024/02/17 16:34:40;;;;;;;0.00;0.00;;;14.00;78.30;;;;;;6158799;23;20005;-80
2024/02/17 16:37:07;;;;;;;0.00;0.00;;;14.00;78.50;;;;;;6159992;23;19997;-79
2024/02/17 16:39:33;;;;;;;0.10;0.10;;;13.90;78.40;;;;;;6159210;23;20716;-81
2024/02/17 16:41:59;;;;;;;0.10;0.10;;;13.90;78.30;;;;;;6159399;23;20493;-79
2024/02/17 16:44:25;;;;;;;0.10;0.10;;;13.80;78.50;;;;;;6132232;23;20013;-80
2024/02/17 16:46:53;;;;;;;0.08;0.08;;;13.80;78.80;;;;;;6133338;23;20126;-81
2024/02/17 16:49:19;;;;;;;0.10;0.10;;;13.80;78.70;;;;;;6133629;23;20013;-79
2024/02/17 16:51:47;;;;;;;0.10;0.10;;;13.90;78.80;;;;;;6133026;23;20092;-77
2024/02/17 16:54:13;;;;;;;0.00;0.00;;;13.80;78.80;;;;;;6132888;23;20009;-76
2024/02/17 16:56:39;;;;;;;0.10;0.10;;;13.80;78.90;;;;;;6159472;23;20028;-82
2024/02/17 16:59:04;;;;;;;0.10;0.10;;;13.80;78.90;;;;;;6132690;23;20001;-79
2024/02/17 17:01:30;;;;;;;0.10;0.10;;;13.80;79.00;;;;;;6133042;23;20005;-80
2024/02/17 17:03:56;;;;;;;0.10;0.10;;;13.80;79.00;;;;;;6132576;23;20017;-81
2024/02/17 17:06:21;;;;;;;0.10;0.10;;;13.90;78.90;;;;;;6133420;23;20005;-87
2024/02/17 17:08:47;;;;;;;0.10;0.10;;;13.80;78.90;;;;;;6159067;23;19998;-81
2024/02/17 17:11:19;;;;;;;0.00;0.00;;;13.70;79.00;;;;;;6135575;23;20032;-77
2024/02/17 17:13:45;;;;;;;0.00;0.00;;;13.70;79.10;;;;;;6162463;23;19998;-85
2024/02/17 17:16:11;;;;;;;0.10;0.10;;;13.70;79.20;;;;;;6164316;23;20775;-85
2024/02/17 17:18:37;;;;;;;0.10;0.10;;;13.70;79.10;;;;;;6161808;23;20049;-77
2024/02/17 17:21:04;;;;;;;0.10;0.10;;;13.60;79.40;;;;;;6137491;23;20081;-80
2024/02/17 17:23:30;;;;;;;0.10;0.10;;;13.50;79.80;;;;;;6164990;23;20078;-78
2024/02/17 17:25:56;;;;;;;0.03;0.03;;;13.50;79.70;;;;;;6162024;23;20057;-79
2024/02/17 17:28:22;;;;;;;0.00;0.00;;;13.50;79.90;;;;;;6132223;23;20009;-81
2024/02/17 17:30:48;;;;;;;0.08;0.08;;;13.40;79.90;;;;;;6158099;23;20018;-77
2024/02/17 17:33:14;;;;;;;0.10;0.10;;;13.40;80.00;;;;;;6132143;23;20020;-78
2024/02/17 17:35:40;;;;;;;0.00;0.00;;;13.40;80.00;;;;;;6158440;23;20033;-76
2024/02/17 17:38:05;;;;;;;0.10;0.10;;;13.30;80.10;;;;;;6158397;23;20943;-76
2024/02/17 17:40:31;;;;;;;0.10;0.10;;;13.30;80.30;;;;;;6158529;23;19998;-75
2024/02/17 17:42:57;;;;;;;0.10;0.10;;;13.20;80.50;;;;;;6158078;23;20057;-79
2024/02/17 17:45:23;;;;;;;0.10;0.10;;;13.20;80.70;;;;;;6158967;23;20052;-84
2024/02/17 17:47:49;;;;;;;0.10;0.10;;;13.20;80.70;;;;;;6132581;23;20005;-75
2024/02/17 17:50:21;;;;;;;0.00;0.00;;;13.20;80.70;;;;;;6130905;23;20013;-75
2024/02/17 17:52:48;;;;;;;0.10;0.10;;;13.20;80.90;;;;;;6157350;23;20041;-75
2024/02/17 17:55:14;;;;;;;0.05;0.05;;;13.10;81.00;;;;;;6132387;23;20341;-75
2024/02/17 17:57:39;;;;;;;0.10;0.10;;;13.00;81.20;;;;;;6158220;23;20002;-76
2024/02/17 18:00:06;;;;;;;0.10;0.10;;;12.90;81.50;;;;;;6157416;23;20064;-75
2024/02/17 18:02:32;;;;;;;0.00;0.00;;;12.90;81.40;;;;;;6151126;23;20005;-75
2024/02/17 18:04:57;;;;;;;0.03;0.03;;;12.80;81.60;;;;;;6155047;23;20006;-74
2024/02/17 18:07:23;;;;;;;0.10;0.10;;;12.80;81.60;;;;;;6151877;23;20005;-76
2024/02/17 18:09:49;;;;;;;0.10;0.10;;;12.80;81.70;;;;;;6122312;23;20017;-76
2024/02/17 18:12:15;;;;;;;0.10;0.10;;;12.80;81.90;;;;;;6127577;23;20013;-74
2024/02/17 18:14:41;;;;;;;0.00;0.00;;;12.70;82.10;;;;;;6152999;23;20001;-74
2024/02/17 18:17:07;;;;;;;0.10;0.10;;;12.70;82.10;;;;;;6156653;23;20001;-75
2024/02/17 18:19:33;;;;;;;0.10;0.10;;;12.70;82.30;;;;;;6157447;23;20004;-75
2024/02/17 18:21:58;;;;;;;0.10;0.10;;;12.60;82.30;;;;;;6130364;23;20005;-75